Bruceville, Texas
Current Conditions -  °F | °C
As of 5:15 AM on Saturday 20 Dec 2014 (Local Time) from KPWG Reporting Station
Overcast Overcast  
Wind Chill: 43°   Ceiling: 1500
Heat Index: 46°   Visibility: 7mi
Dew Point: 43°   Wind: 7mph
Humidity: 87%   Direction: 360°N
Pressure: 30.21"   Gusts: NA
Location:  31.32°N, 97.24°W
Report Text: KPWG 201115Z AUTO 36006KT 7SM OVC015 08/06 A3021 RMK AO1
Loading
Personal Weather Stations






























Interactive Weather Map New forecast layout! Learn more

10-Day Weather Forecast

Advertisements
Track Severe Weather on mobile